METAR Formatted Surface Weather Observation
Issued by NWS

Home | Current Version | Previous Version | Text Only | Print | Product List | Glossary On
Versions: 1 2 3
873
SAUS46 KLOX 211557
MTRNID
METAR KNID 211556Z VRB06KT 10SM FEW100 SCT180 BKN250 24/04 A2974 RMK
AO2 SLP052 T02390044



USA.gov is the U.S. government's official web portal to all federal, state and local government web resources and services.